sensor_id;sensor_type;location;lat;lon;timestamp;temperature;humidity
16160;DHT22;8185;57.818;15.224;2023-09-12T00:01:22;16.30;99.90
16160;DHT22;8185;57.818;15.224;2023-09-12T00:03:51;16.30;99.90
16160;DHT22;8185;57.818;15.224;2023-09-12T00:06:18;16.30;99.90
16160;DHT22;8185;57.818;15.224;2023-09-12T00:08:45;16.20;99.90
16160;DHT22;8185;57.818;15.224;2023-09-12T00:11:13;16.20;99.90
16160;DHT22;8185;57.818;15.224;2023-09-12T00:13:41;16.20;99.90
16160;DHT22;8185;57.818;15.224;2023-09-12T00:16:08;16.20;99.90
16160;DHT22;8185;57.818;15.224;2023-09-12T00:18:36;16.30;99.90
16160;DHT22;8185;57.818;15.224;2023-09-12T00:21:03;16.40;99.90
16160;DHT22;8185;57.818;15.224;2023-09-12T00:23:31;16.30;99.90
16160;DHT22;8185;57.818;15.224;2023-09-12T00:25:58;16.40;99.90
16160;DHT22;8185;57.818;15.224;2023-09-12T00:28:25;16.40;99.90
16160;DHT22;8185;57.818;15.224;2023-09-12T00:30:54;16.40;99.90
16160;DHT22;8185;57.818;15.224;2023-09-12T00:33:21;16.40;99.90
16160;DHT22;8185;57.818;15.224;2023-09-12T00:35:48;16.50;99.90
16160;DHT22;8185;57.818;15.224;2023-09-12T00:38:15;16.50;99.90
16160;DHT22;8185;57.818;15.224;2023-09-12T00:40:42;16.50;99.90
16160;DHT22;8185;57.818;15.224;2023-09-12T00:43:09;16.60;99.90
16160;DHT22;8185;57.818;15.224;2023-09-12T00:45:37;16.60;99.90
16160;DHT22;8185;57.818;15.224;2023-09-12T00:48:06;16.60;99.90
16160;DHT22;8185;57.818;15.224;2023-09-12T00:50:35;16.60;99.90
16160;DHT22;8185;57.818;15.224;2023-09-12T00:53:04;16.60;99.90
16160;DHT22;8185;57.818;15.224;2023-09-12T00:55:32;16.70;99.90
16160;DHT22;8185;57.818;15.224;2023-09-12T00:58:01;16.60;99.90
16160;DHT22;8185;57.818;15.224;2023-09-12T01:00:29;16.60;99.90
16160;DHT22;8185;57.818;15.224;2023-09-12T01:02:56;16.60;99.90
16160;DHT22;8185;57.818;15.224;2023-09-12T01:05:25;16.70;99.90
16160;DHT22;8185;57.818;15.224;2023-09-12T01:07:53;16.70;99.90
16160;DHT22;8185;57.818;15.224;2023-09-12T01:10:21;16.70;99.90
16160;DHT22;8185;57.818;15.224;2023-09-12T01:12:48;16.70;99.90
16160;DHT22;8185;57.818;15.224;2023-09-12T01:15:15;16.70;99.90
16160;DHT22;8185;57.818;15.224;2023-09-12T01:17:43;16.70;99.90
16160;DHT22;8185;57.818;15.224;2023-09-12T01:20:14;16.70;99.90
16160;DHT22;8185;57.818;15.224;2023-09-12T01:23:08;16.70;99.90
16160;DHT22;8185;57.818;15.224;2023-09-12T01:28:38;16.70;99.90
16160;DHT22;8185;57.818;15.224;2023-09-12T01:31:09;16.70;99.90
16160;DHT22;8185;57.818;15.224;2023-09-12T01:33:36;16.70;99.90
16160;DHT22;8185;57.818;15.224;2023-09-12T01:36:04;16.70;99.90
16160;DHT22;8185;57.818;15.224;2023-09-12T01:38:31;16.80;99.90
16160;DHT22;8185;57.818;15.224;2023-09-12T01:40:59;16.80;99.90
16160;DHT22;8185;57.818;15.224;2023-09-12T01:43:27;16.80;99.90
16160;DHT22;8185;57.818;15.224;2023-09-12T01:45:58;16.80;99.90
16160;DHT22;8185;57.818;15.224;2023-09-12T01:48:28;16.80;99.90
16160;DHT22;8185;57.818;15.224;2023-09-12T01:50:59;16.80;99.90
16160;DHT22;8185;57.818;15.224;2023-09-12T01:53:28;16.80;99.90
16160;DHT22;8185;57.818;15.224;2023-09-12T01:55:56;16.70;99.90
16160;DHT22;8185;57.818;15.224;2023-09-12T01:58:25;16.70;99.90
16160;DHT22;8185;57.818;15.224;2023-09-12T02:00:53;16.70;99.90
16160;DHT22;8185;57.818;15.224;2023-09-12T02:03:21;16.70;99.90
16160;DHT22;8185;57.818;15.224;2023-09-12T02:05:49;16.60;99.90
16160;DHT22;8185;57.818;15.224;2023-09-12T02:08:16;16.60;99.90
16160;DHT22;8185;57.818;15.224;2023-09-12T02:10:43;16.50;99.90
16160;DHT22;8185;57.818;15.224;2023-09-12T02:13:10;16.50;99.90
16160;DHT22;8185;57.818;15.224;2023-09-12T02:15:37;16.50;99.90
16160;DHT22;8185;57.818;15.224;2023-09-12T02:18:04;16.40;99.90
16160;DHT22;8185;57.818;15.224;2023-09-12T02:20:37;16.40;99.90
16160;DHT22;8185;57.818;15.224;2023-09-12T02:23:04;16.40;99.90
16160;DHT22;8185;57.818;15.224;2023-09-12T02:25:31;16.30;99.90
16160;DHT22;8185;57.818;15.224;2023-09-12T02:27:58;16.40;99.90
16160;DHT22;8185;57.818;15.224;2023-09-12T02:30:26;16.30;99.90
16160;DHT22;8185;57.818;15.224;2023-09-12T02:32:53;16.40;99.90
16160;DHT22;8185;57.818;15.224;2023-09-12T02:35:20;16.40;99.90
16160;DHT22;8185;57.818;15.224;2023-09-12T02:37:49;16.40;99.90
16160;DHT22;8185;57.818;15.224;2023-09-12T02:40:16;16.30;99.90
16160;DHT22;8185;57.818;15.224;2023-09-12T02:42:44;16.30;99.90
16160;DHT22;8185;57.818;15.224;2023-09-12T02:45:11;16.40;99.90
16160;DHT22;8185;57.818;15.224;2023-09-12T02:47:38;16.40;99.90
16160;DHT22;8185;57.818;15.224;2023-09-12T02:50:06;16.40;99.90
16160;DHT22;8185;57.818;15.224;2023-09-12T02:52:33;16.30;99.90
16160;DHT22;8185;57.818;15.224;2023-09-12T02:55:02;16.40;99.90
16160;DHT22;8185;57.818;15.224;2023-09-12T02:57:29;16.40;99.90
16160;DHT22;8185;57.818;15.224;2023-09-12T02:59:57;16.30;99.90
16160;DHT22;8185;57.818;15.224;2023-09-12T03:02:24;16.40;99.90
16160;DHT22;8185;57.818;15.224;2023-09-12T03:04:51;16.40;99.90
16160;DHT22;8185;57.818;15.224;2023-09-12T03:07:18;16.40;99.90
16160;DHT22;8185;57.818;15.224;2023-09-12T03:09:48;16.40;99.90
16160;DHT22;8185;57.818;15.224;2023-09-12T03:12:16;16.40;99.90
16160;DHT22;8185;57.818;15.224;2023-09-12T03:14:44;16.40;99.90
16160;DHT22;8185;57.818;15.224;2023-09-12T03:17:11;16.40;99.90
16160;DHT22;8185;57.818;15.224;2023-09-12T03:19:38;16.40;99.90
16160;DHT22;8185;57.818;15.224;2023-09-12T03:22:05;16.40;99.90
16160;DHT22;8185;57.818;15.224;2023-09-12T03:24:32;16.40;99.90
16160;DHT22;8185;57.818;15.224;2023-09-12T03:27:00;16.40;99.90
16160;DHT22;8185;57.818;15.224;2023-09-12T03:29:28;16.40;99.90
16160;DHT22;8185;57.818;15.224;2023-09-12T03:31:55;16.40;99.90
16160;DHT22;8185;57.818;15.224;2023-09-12T03:34:22;16.40;99.90
16160;DHT22;8185;57.818;15.224;2023-09-12T03:36:50;16.40;99.90
16160;DHT22;8185;57.818;15.224;2023-09-12T03:39:17;16.40;99.90
16160;DHT22;8185;57.818;15.224;2023-09-12T03:41:44;16.40;99.90
16160;DHT22;8185;57.818;15.224;2023-09-12T03:44:11;16.40;99.90
16160;DHT22;8185;57.818;15.224;2023-09-12T03:46:40;16.30;99.90
16160;DHT22;8185;57.818;15.224;2023-09-12T03:49:07;16.30;99.90
16160;DHT22;8185;57.818;15.224;2023-09-12T03:51:34;16.30;99.90
16160;DHT22;8185;57.818;15.224;2023-09-12T03:54:03;16.30;99.90
16160;DHT22;8185;57.818;15.224;2023-09-12T03:56:31;16.20;99.90
16160;DHT22;8185;57.818;15.224;2023-09-12T03:58:58;16.20;99.90
16160;DHT22;8185;57.818;15.224;2023-09-12T04:01:25;16.30;99.90
16160;DHT22;8185;57.818;15.224;2023-09-12T04:03:54;16.20;99.90
16160;DHT22;8185;57.818;15.224;2023-09-12T04:06:21;16.20;99.90
16160;DHT22;8185;57.818;15.224;2023-09-12T04:08:49;16.20;99.90
16160;DHT22;8185;57.818;15.224;2023-09-12T04:11:16;16.20;99.90
16160;DHT22;8185;57.818;15.224;2023-09-12T04:13:43;16.10;99.90
16160;DHT22;8185;57.818;15.224;2023-09-12T04:16:10;16.10;99.90
16160;DHT22;8185;57.818;15.224;2023-09-12T04:18:38;16.10;99.90
16160;DHT22;8185;57.818;15.224;2023-09-12T04:21:06;16.10;99.90
16160;DHT22;8185;57.818;15.224;2023-09-12T04:23:34;16.00;99.90
16160;DHT22;8185;57.818;15.224;2023-09-12T04:26:01;15.90;99.90
16160;DHT22;8185;57.818;15.224;2023-09-12T04:28:29;15.90;99.90
16160;DHT22;8185;57.818;15.224;2023-09-12T04:31:01;15.90;99.90
16160;DHT22;8185;57.818;15.224;2023-09-12T04:33:29;15.80;99.90
16160;DHT22;8185;57.818;15.224;2023-09-12T04:35:58;15.80;99.90
16160;DHT22;8185;57.818;15.224;2023-09-12T04:38:27;15.80;99.90
16160;DHT22;8185;57.818;15.224;2023-09-12T04:40:55;15.80;99.90
16160;DHT22;8185;57.818;15.224;2023-09-12T04:43:23;15.70;99.90
16160;DHT22;8185;57.818;15.224;2023-09-12T04:45:50;15.70;99.90
16160;DHT22;8185;57.818;15.224;2023-09-12T04:48:17;15.70;99.90
16160;DHT22;8185;57.818;15.224;2023-09-12T04:50:44;15.60;99.90
16160;DHT22;8185;57.818;15.224;2023-09-12T04:53:12;15.60;99.90
16160;DHT22;8185;57.818;15.224;2023-09-12T04:55:40;15.60;99.90
16160;DHT22;8185;57.818;15.224;2023-09-12T04:58:07;15.50;99.90
16160;DHT22;8185;57.818;15.224;2023-09-12T05:00:35;15.50;99.90
16160;DHT22;8185;57.818;15.224;2023-09-12T05:03:02;15.40;99.90
16160;DHT22;8185;57.818;15.224;2023-09-12T05:05:30;15.40;99.90
16160;DHT22;8185;57.818;15.224;2023-09-12T05:07:57;15.50;99.90
16160;DHT22;8185;57.818;15.224;2023-09-12T05:10:24;15.40;99.90
16160;DHT22;8185;57.818;15.224;2023-09-12T05:12:53;15.40;99.90
16160;DHT22;8185;57.818;15.224;2023-09-12T05:15:20;14.90;99.90
16160;DHT22;8185;57.818;15.224;2023-09-12T05:17:47;15.50;99.90
16160;DHT22;8185;57.818;15.224;2023-09-12T05:20:15;15.50;99.90
16160;DHT22;8185;57.818;15.224;2023-09-12T05:22:42;15.50;99.90
16160;DHT22;8185;57.818;15.224;2023-09-12T05:25:09;15.50;99.90
16160;DHT22;8185;57.818;15.224;2023-09-12T05:27:36;15.60;99.90
16160;DHT22;8185;57.818;15.224;2023-09-12T05:30:06;15.60;99.90
16160;DHT22;8185;57.818;15.224;2023-09-12T05:32:33;15.60;99.90
16160;DHT22;8185;57.818;15.224;2023-09-12T05:35:02;15.60;99.90
16160;DHT22;8185;57.818;15.224;2023-09-12T05:37:29;15.70;99.90
16160;DHT22;8185;57.818;15.224;2023-09-12T05:39:57;15.70;99.90
16160;DHT22;8185;57.818;15.224;2023-09-12T05:42:24;15.70;99.90
16160;DHT22;8185;57.818;15.224;2023-09-12T05:44:52;15.70;99.90
16160;DHT22;8185;57.818;15.224;2023-09-12T05:47:21;15.80;99.90
16160;DHT22;8185;57.818;15.224;2023-09-12T05:49:48;15.80;99.90
16160;DHT22;8185;57.818;15.224;2023-09-12T05:52:15;15.80;99.90
16160;DHT22;8185;57.818;15.224;2023-09-12T05:54:43;15.80;99.90
16160;DHT22;8185;57.818;15.224;2023-09-12T05:57:11;16.00;99.90
16160;DHT22;8185;57.818;15.224;2023-09-12T05:59:39;16.00;99.90
16160;DHT22;8185;57.818;15.224;2023-09-12T06:02:06;16.00;99.90
16160;DHT22;8185;57.818;15.224;2023-09-12T06:04:37;16.10;99.90
16160;DHT22;8185;57.818;15.224;2023-09-12T06:07:04;16.10;99.90
16160;DHT22;8185;57.818;15.224;2023-09-12T06:09:31;16.20;99.90
16160;DHT22;8185;57.818;15.224;2023-09-12T06:11:58;16.20;99.90
16160;DHT22;8185;57.818;15.224;2023-09-12T06:14:26;16.30;99.90
16160;DHT22;8185;57.818;15.224;2023-09-12T06:16:53;16.30;99.90
16160;DHT22;8185;57.818;15.224;2023-09-12T06:19:20;16.40;99.90
16160;DHT22;8185;57.818;15.224;2023-09-12T06:21:49;16.40;99.90
16160;DHT22;8185;57.818;15.224;2023-09-12T06:24:18;16.60;99.90
16160;DHT22;8185;57.818;15.224;2023-09-12T06:26:46;16.60;99.90
16160;DHT22;8185;57.818;15.224;2023-09-12T06:29:14;16.60;99.90
16160;DHT22;8185;57.818;15.224;2023-09-12T06:31:42;16.60;99.90
16160;DHT22;8185;57.818;15.224;2023-09-12T06:34:09;16.50;99.90
16160;DHT22;8185;57.818;15.224;2023-09-12T06:36:38;16.60;99.90
16160;DHT22;8185;57.818;15.224;2023-09-12T06:39:08;16.60;99.90
16160;DHT22;8185;57.818;15.224;2023-09-12T06:41:35;16.60;99.90
16160;DHT22;8185;57.818;15.224;2023-09-12T06:44:03;16.70;99.90
16160;DHT22;8185;57.818;15.224;2023-09-12T06:46:31;16.60;99.90
16160;DHT22;8185;57.818;15.224;2023-09-12T06:49:02;16.70;99.90
16160;DHT22;8185;57.818;15.224;2023-09-12T06:51:29;16.70;99.90
16160;DHT22;8185;57.818;15.224;2023-09-12T06:53:56;16.80;99.90
16160;DHT22;8185;57.818;15.224;2023-09-12T06:56:25;16.90;99.90
16160;DHT22;8185;57.818;15.224;2023-09-12T06:58:53;17.00;99.90
16160;DHT22;8185;57.818;15.224;2023-09-12T07:01:21;17.00;99.90
16160;DHT22;8185;57.818;15.224;2023-09-12T07:03:48;16.90;99.90
16160;DHT22;8185;57.818;15.224;2023-09-12T07:06:19;17.00;99.90
16160;DHT22;8185;57.818;15.224;2023-09-12T07:08:47;16.90;99.90
16160;DHT22;8185;57.818;15.224;2023-09-12T07:11:14;17.00;99.90
16160;DHT22;8185;57.818;15.224;2023-09-12T07:13:43;17.00;99.90
16160;DHT22;8185;57.818;15.224;2023-09-12T07:16:10;17.00;99.90
16160;DHT22;8185;57.818;15.224;2023-09-12T07:18:37;17.20;99.90
16160;DHT22;8185;57.818;15.224;2023-09-12T07:21:05;17.20;99.90
16160;DHT22;8185;57.818;15.224;2023-09-12T07:23:33;17.20;99.90
16160;DHT22;8185;57.818;15.224;2023-09-12T07:26:00;17.30;99.90
16160;DHT22;8185;57.818;15.224;2023-09-12T07:28:29;17.50;99.90
16160;DHT22;8185;57.818;15.224;2023-09-12T07:30:58;17.70;99.90
16160;DHT22;8185;57.818;15.224;2023-09-12T07:33:25;17.80;99.90
16160;DHT22;8185;57.818;15.224;2023-09-12T07:35:53;17.80;99.90
16160;DHT22;8185;57.818;15.224;2023-09-12T07:38:21;17.70;99.90
16160;DHT22;8185;57.818;15.224;2023-09-12T07:40:48;17.80;99.90
16160;DHT22;8185;57.818;15.224;2023-09-12T07:43:16;17.80;99.90
16160;DHT22;8185;57.818;15.224;2023-09-12T07:45:43;18.00;99.90
16160;DHT22;8185;57.818;15.224;2023-09-12T07:48:11;17.90;99.90
16160;DHT22;8185;57.818;15.224;2023-09-12T07:50:39;18.10;99.90
16160;DHT22;8185;57.818;15.224;2023-09-12T07:53:06;18.20;99.90
16160;DHT22;8185;57.818;15.224;2023-09-12T07:55:36;18.30;99.90
16160;DHT22;8185;57.818;15.224;2023-09-12T07:58:12;18.30;99.90
16160;DHT22;8185;57.818;15.224;2023-09-12T08:00:39;18.40;99.90
16160;DHT22;8185;57.818;15.224;2023-09-12T08:03:06;18.30;99.90
16160;DHT22;8185;57.818;15.224;2023-09-12T08:05:35;18.50;99.90
16160;DHT22;8185;57.818;15.224;2023-09-12T08:08:03;18.50;99.90
16160;DHT22;8185;57.818;15.224;2023-09-12T08:10:30;18.50;99.90
16160;DHT22;8185;57.818;15.224;2023-09-12T08:12:57;18.70;99.90
16160;DHT22;8185;57.818;15.224;2023-09-12T08:15:25;18.80;99.90
16160;DHT22;8185;57.818;15.224;2023-09-12T08:17:53;18.90;99.90
16160;DHT22;8185;57.818;15.224;2023-09-12T08:20:21;18.90;99.90
16160;DHT22;8185;57.818;15.224;2023-09-12T08:22:49;19.10;99.90
16160;DHT22;8185;57.818;15.224;2023-09-12T08:25:17;19.10;99.90
16160;DHT22;8185;57.818;15.224;2023-09-12T08:27:44;19.30;99.90
16160;DHT22;8185;57.818;15.224;2023-09-12T08:30:12;19.40;99.90
16160;DHT22;8185;57.818;15.224;2023-09-12T08:32:40;19.30;99.90
16160;DHT22;8185;57.818;15.224;2023-09-12T08:35:10;19.50;99.90
16160;DHT22;8185;57.818;15.224;2023-09-12T08:37:38;19.80;99.90
16160;DHT22;8185;57.818;15.224;2023-09-12T08:40:09;19.90;99.90
16160;DHT22;8185;57.818;15.224;2023-09-12T08:42:40;20.10;99.90
16160;DHT22;8185;57.818;15.224;2023-09-12T08:45:13;20.00;99.90
16160;DHT22;8185;57.818;15.224;2023-09-12T08:47:42;19.90;99.90
16160;DHT22;8185;57.818;15.224;2023-09-12T08:50:11;19.90;99.90
16160;DHT22;8185;57.818;15.224;2023-09-12T08:52:40;19.90;99.90
16160;DHT22;8185;57.818;15.224;2023-09-12T08:55:10;19.90;99.90
16160;DHT22;8185;57.818;15.224;2023-09-12T08:57:39;19.80;99.90
16160;DHT22;8185;57.818;15.224;2023-09-12T09:00:08;19.70;99.90
16160;DHT22;8185;57.818;15.224;2023-09-12T09:02:36;19.70;99.90
16160;DHT22;8185;57.818;15.224;2023-09-12T09:05:07;19.60;99.90
16160;DHT22;8185;57.818;15.224;2023-09-12T09:07:35;19.40;99.90
16160;DHT22;8185;57.818;15.224;2023-09-12T09:10:06;19.40;99.90
16160;DHT22;8185;57.818;15.224;2023-09-12T09:12:35;19.60;99.90
16160;DHT22;8185;57.818;15.224;2023-09-12T09:15:20;19.80;99.90
16160;DHT22;8185;57.818;15.224;2023-09-12T09:17:48;19.80;99.90
16160;DHT22;8185;57.818;15.224;2023-09-12T09:20:26;19.90;99.90
16160;DHT22;8185;57.818;15.224;2023-09-12T09:22:59;19.90;99.90
16160;DHT22;8185;57.818;15.224;2023-09-12T09:25:27;20.00;99.90
16160;DHT22;8185;57.818;15.224;2023-09-12T09:27:55;20.00;99.90
16160;DHT22;8185;57.818;15.224;2023-09-12T09:30:40;19.90;99.90
16160;DHT22;8185;57.818;15.224;2023-09-12T09:33:08;19.60;99.90
16160;DHT22;8185;57.818;15.224;2023-09-12T09:35:35;19.60;99.90
16160;DHT22;8185;57.818;15.224;2023-09-12T09:38:03;19.50;99.90
16160;DHT22;8185;57.818;15.224;2023-09-12T09:40:32;19.40;99.90
16160;DHT22;8185;57.818;15.224;2023-09-12T09:43:02;19.20;99.90
16160;DHT22;8185;57.818;15.224;2023-09-12T09:45:30;19.20;99.90
16160;DHT22;8185;57.818;15.224;2023-09-12T09:47:58;19.20;99.90
16160;DHT22;8185;57.818;15.224;2023-09-12T09:50:26;19.30;99.90
16160;DHT22;8185;57.818;15.224;2023-09-12T09:52:55;19.40;99.90
16160;DHT22;8185;57.818;15.224;2023-09-12T09:55:23;19.50;99.90
16160;DHT22;8185;57.818;15.224;2023-09-12T09:57:51;19.60;99.90
16160;DHT22;8185;57.818;15.224;2023-09-12T10:00:22;19.60;99.90
16160;DHT22;8185;57.818;15.224;2023-09-12T10:02:51;19.70;99.90
16160;DHT22;8185;57.818;15.224;2023-09-12T10:05:19;19.70;99.90
16160;DHT22;8185;57.818;15.224;2023-09-12T10:07:49;19.70;99.90
16160;DHT22;8185;57.818;15.224;2023-09-12T10:10:17;19.80;99.90
16160;DHT22;8185;57.818;15.224;2023-09-12T10:12:49;19.70;99.90
16160;DHT22;8185;57.818;15.224;2023-09-12T10:15:20;19.50;99.90
16160;DHT22;8185;57.818;15.224;2023-09-12T10:17:55;19.40;99.90
16160;DHT22;8185;57.818;15.224;2023-09-12T10:20:26;19.40;99.90
16160;DHT22;8185;57.818;15.224;2023-09-12T10:23:03;19.20;99.90
16160;DHT22;8185;57.818;15.224;2023-09-12T10:25:35;19.20;99.90
16160;DHT22;8185;57.818;15.224;2023-09-12T10:28:04;19.20;99.90
16160;DHT22;8185;57.818;15.224;2023-09-12T10:30:33;19.20;99.90
16160;DHT22;8185;57.818;15.224;2023-09-12T10:33:02;19.30;99.90
16160;DHT22;8185;57.818;15.224;2023-09-12T10:35:30;19.20;99.90
16160;DHT22;8185;57.818;15.224;2023-09-12T10:38:00;19.20;99.90
16160;DHT22;8185;57.818;15.224;2023-09-12T10:40:31;19.30;99.90
16160;DHT22;8185;57.818;15.224;2023-09-12T10:43:00;19.20;99.90
16160;DHT22;8185;57.818;15.224;2023-09-12T10:45:30;19.20;99.90
16160;DHT22;8185;57.818;15.224;2023-09-12T10:47:59;19.20;99.90
16160;DHT22;8185;57.818;15.224;2023-09-12T10:50:27;19.30;99.90
16160;DHT22;8185;57.818;15.224;2023-09-12T10:52:55;19.40;99.90
16160;DHT22;8185;57.818;15.224;2023-09-12T10:55:23;19.40;99.90
16160;DHT22;8185;57.818;15.224;2023-09-12T10:58:04;19.50;99.90
16160;DHT22;8185;57.818;15.224;2023-09-12T11:00:32;19.50;99.90
16160;DHT22;8185;57.818;15.224;2023-09-12T11:03:37;19.60;99.90
16160;DHT22;8185;57.818;15.224;2023-09-12T11:06:19;19.60;99.90
16160;DHT22;8185;57.818;15.224;2023-09-12T11:09:15;19.70;99.90
16160;DHT22;8185;57.818;15.224;2023-09-12T11:11:46;19.70;99.90
16160;DHT22;8185;57.818;15.224;2023-09-12T11:14:14;19.70;99.90
16160;DHT22;8185;57.818;15.224;2023-09-12T11:16:42;19.70;99.90
16160;DHT22;8185;57.818;15.224;2023-09-12T11:19:16;19.90;99.90
16160;DHT22;8185;57.818;15.224;2023-09-12T11:21:45;20.10;99.90
16160;DHT22;8185;57.818;15.224;2023-09-12T11:24:14;20.40;99.90
16160;DHT22;8185;57.818;15.224;2023-09-12T11:26:56;20.60;99.90
16160;DHT22;8185;57.818;15.224;2023-09-12T11:29:27;20.80;99.90
16160;DHT22;8185;57.818;15.224;2023-09-12T11:31:56;21.00;99.90
16160;DHT22;8185;57.818;15.224;2023-09-12T11:34:30;21.30;99.90
16160;DHT22;8185;57.818;15.224;2023-09-12T11:37:03;21.10;99.90
16160;DHT22;8185;57.818;15.224;2023-09-12T11:39:32;20.90;99.90
16160;DHT22;8185;57.818;15.224;2023-09-12T11:42:00;20.60;99.90
16160;DHT22;8185;57.818;15.224;2023-09-12T11:44:28;20.60;99.90
16160;DHT22;8185;57.818;15.224;2023-09-12T11:46:59;20.30;99.90
16160;DHT22;8185;57.818;15.224;2023-09-12T11:49:35;20.10;99.90
16160;DHT22;8185;57.818;15.224;2023-09-12T11:52:07;20.10;99.90
16160;DHT22;8185;57.818;15.224;2023-09-12T11:54:35;20.00;99.90
16160;DHT22;8185;57.818;15.224;2023-09-12T11:57:02;20.30;99.90
16160;DHT22;8185;57.818;15.224;2023-09-12T11:59:29;20.40;99.90
16160;DHT22;8185;57.818;15.224;2023-09-12T12:01:57;20.70;99.90
16160;DHT22;8185;57.818;15.224;2023-09-12T12:04:25;20.90;99.90
16160;DHT22;8185;57.818;15.224;2023-09-12T12:06:54;21.20;99.90
16160;DHT22;8185;57.818;15.224;2023-09-12T12:09:21;21.10;99.90
16160;DHT22;8185;57.818;15.224;2023-09-12T12:11:48;20.80;99.90
16160;DHT22;8185;57.818;15.224;2023-09-12T12:14:17;20.70;99.90
16160;DHT22;8185;57.818;15.224;2023-09-12T12:16:46;20.80;99.90
16160;DHT22;8185;57.818;15.224;2023-09-12T12:19:13;20.70;99.90
16160;DHT22;8185;57.818;15.224;2023-09-12T12:21:41;20.80;99.90
16160;DHT22;8185;57.818;15.224;2023-09-12T12:24:12;21.00;99.90
16160;DHT22;8185;57.818;15.224;2023-09-12T12:26:41;21.00;99.90
16160;DHT22;8185;57.818;15.224;2023-09-12T12:29:09;20.90;99.90
16160;DHT22;8185;57.818;15.224;2023-09-12T12:31:37;20.80;99.90
16160;DHT22;8185;57.818;15.224;2023-09-12T12:34:05;20.70;99.90
16160;DHT22;8185;57.818;15.224;2023-09-12T12:36:33;20.80;99.90
16160;DHT22;8185;57.818;15.224;2023-09-12T12:39:00;20.80;99.90
16160;DHT22;8185;57.818;15.224;2023-09-12T12:41:29;20.70;99.90
16160;DHT22;8185;57.818;15.224;2023-09-12T12:43:57;20.40;99.90
16160;DHT22;8185;57.818;15.224;2023-09-12T12:46:26;20.30;99.90
16160;DHT22;8185;57.818;15.224;2023-09-12T12:48:54;20.30;99.90
16160;DHT22;8185;57.818;15.224;2023-09-12T12:51:23;20.30;99.90
16160;DHT22;8185;57.818;15.224;2023-09-12T12:53:52;20.30;99.90
16160;DHT22;8185;57.818;15.224;2023-09-12T12:56:21;20.20;99.90
16160;DHT22;8185;57.818;15.224;2023-09-12T12:58:52;20.10;99.90
16160;DHT22;8185;57.818;15.224;2023-09-12T13:01:19;19.90;99.90
16160;DHT22;8185;57.818;15.224;2023-09-12T13:03:47;19.90;99.90
16160;DHT22;8185;57.818;15.224;2023-09-12T13:06:16;19.70;99.90
16160;DHT22;8185;57.818;15.224;2023-09-12T13:08:45;19.60;99.90
16160;DHT22;8185;57.818;15.224;2023-09-12T13:11:13;19.50;99.90
16160;DHT22;8185;57.818;15.224;2023-09-12T13:13:42;19.30;99.90
16160;DHT22;8185;57.818;15.224;2023-09-12T13:16:13;19.30;99.90
16160;DHT22;8185;57.818;15.224;2023-09-12T13:18:40;19.10;99.90
16160;DHT22;8185;57.818;15.224;2023-09-12T13:21:08;19.00;99.90
16160;DHT22;8185;57.818;15.224;2023-09-12T13:23:37;18.80;99.90
16160;DHT22;8185;57.818;15.224;2023-09-12T13:26:06;18.70;99.90
16160;DHT22;8185;57.818;15.224;2023-09-12T13:28:34;18.70;99.90
16160;DHT22;8185;57.818;15.224;2023-09-12T13:31:01;18.70;99.90
16160;DHT22;8185;57.818;15.224;2023-09-12T13:33:30;18.60;99.90
16160;DHT22;8185;57.818;15.224;2023-09-12T13:35:58;18.60;99.90
16160;DHT22;8185;57.818;15.224;2023-09-12T13:38:25;18.70;99.90
16160;DHT22;8185;57.818;15.224;2023-09-12T13:40:52;18.70;99.90
16160;DHT22;8185;57.818;15.224;2023-09-12T13:43:19;18.70;99.90
16160;DHT22;8185;57.818;15.224;2023-09-12T13:45:48;18.70;99.90
16160;DHT22;8185;57.818;15.224;2023-09-12T13:48:15;18.80;99.90
16160;DHT22;8185;57.818;15.224;2023-09-12T13:50:45;18.80;99.90
16160;DHT22;8185;57.818;15.224;2023-09-12T13:53:12;18.90;99.90
16160;DHT22;8185;57.818;15.224;2023-09-12T13:55:40;18.90;99.90
16160;DHT22;8185;57.818;15.224;2023-09-12T13:58:07;19.00;99.90
16160;DHT22;8185;57.818;15.224;2023-09-12T14:00:35;19.00;99.90
16160;DHT22;8185;57.818;15.224;2023-09-12T14:03:02;19.00;99.90
16160;DHT22;8185;57.818;15.224;2023-09-12T14:05:30;19.10;99.90
16160;DHT22;8185;57.818;15.224;2023-09-12T14:07:59;19.00;99.90
16160;DHT22;8185;57.818;15.224;2023-09-12T14:10:26;19.10;99.90
16160;DHT22;8185;57.818;15.224;2023-09-12T14:12:53;19.10;99.90
16160;DHT22;8185;57.818;15.224;2023-09-12T14:15:20;19.10;99.90
16160;DHT22;8185;57.818;15.224;2023-09-12T14:17:48;19.10;99.90
16160;DHT22;8185;57.818;15.224;2023-09-12T14:20:15;19.10;99.90
16160;DHT22;8185;57.818;15.224;2023-09-12T14:22:43;19.00;99.90
16160;DHT22;8185;57.818;15.224;2023-09-12T14:25:11;19.00;99.90
16160;DHT22;8185;57.818;15.224;2023-09-12T14:27:41;19.00;99.90
16160;DHT22;8185;57.818;15.224;2023-09-12T14:30:10;18.90;99.90
16160;DHT22;8185;57.818;15.224;2023-09-12T14:32:39;18.80;99.90
16160;DHT22;8185;57.818;15.224;2023-09-12T14:35:06;18.90;99.90
16160;DHT22;8185;57.818;15.224;2023-09-12T14:37:34;19.00;99.90
16160;DHT22;8185;57.818;15.224;2023-09-12T14:40:04;19.00;99.90
16160;DHT22;8185;57.818;15.224;2023-09-12T14:42:33;18.90;99.90
16160;DHT22;8185;57.818;15.224;2023-09-12T14:45:00;18.90;99.90
16160;DHT22;8185;57.818;15.224;2023-09-12T14:47:28;18.80;99.90
16160;DHT22;8185;57.818;15.224;2023-09-12T14:49:56;18.80;99.90
16160;DHT22;8185;57.818;15.224;2023-09-12T14:52:24;18.80;99.90
16160;DHT22;8185;57.818;15.224;2023-09-12T14:54:52;18.90;99.90
16160;DHT22;8185;57.818;15.224;2023-09-12T14:57:20;19.00;99.90
16160;DHT22;8185;57.818;15.224;2023-09-12T14:59:51;19.10;99.90
16160;DHT22;8185;57.818;15.224;2023-09-12T15:02:18;19.20;99.90
16160;DHT22;8185;57.818;15.224;2023-09-12T15:04:45;19.10;99.90
16160;DHT22;8185;57.818;15.224;2023-09-12T15:07:12;19.20;99.90
16160;DHT22;8185;57.818;15.224;2023-09-12T15:09:40;19.10;99.90
16160;DHT22;8185;57.818;15.224;2023-09-12T15:12:08;19.20;99.90
16160;DHT22;8185;57.818;15.224;2023-09-12T15:14:35;19.20;99.90
16160;DHT22;8185;57.818;15.224;2023-09-12T15:17:04;19.20;99.90
16160;DHT22;8185;57.818;15.224;2023-09-12T15:19:31;19.30;99.90
16160;DHT22;8185;57.818;15.224;2023-09-12T15:21:58;19.30;99.90
16160;DHT22;8185;57.818;15.224;2023-09-12T15:24:25;19.50;99.90
16160;DHT22;8185;57.818;15.224;2023-09-12T15:26:53;19.50;99.90
16160;DHT22;8185;57.818;15.224;2023-09-12T15:29:20;20.00;99.90
16160;DHT22;8185;57.818;15.224;2023-09-12T15:31:48;21.10;99.90
16160;DHT22;8185;57.818;15.224;2023-09-12T15:34:16;21.40;99.90
16160;DHT22;8185;57.818;15.224;2023-09-12T15:36:45;21.70;99.90
16160;DHT22;8185;57.818;15.224;2023-09-12T15:39:14;21.80;99.90
16160;DHT22;8185;57.818;15.224;2023-09-12T15:41:41;22.00;99.90